Terminal Aerodrome Forecast
Issued by NWS

Home | Current Version | Previous Version | Text Only | Print | Product List | Glossary On
Versions: 1 2 3 4 5 6 7 8 9 10 11 12 13
000
FTUS42 KGSP 091135
TAFAND
TAF
KAND 091135Z 0912/1012 26010KT P6SM SCT040 BKN100
     FM091600 26013G22KT P6SM SCT050 BKN080
     FM100200 26009KT P6SM SCT060 SCT120=

USA.gov is the U.S. government's official web portal to all federal, state and local government web resources and services.